カシュガル の空港の天気 - METARとTAF

カシュガル空港 ( ZWSH / KHG ) - 中国 新疆ウイグル自治区カシュガル市
飛行場実況気象(Metar)
観測時間05/28 10:00 CST (05/28 02:00 UTC)
風向・風速西北西 7m/s
視程10km以上
天気現象
なし
気温26℃
湿度17%
気圧1010hPa
METARZWSH 280200Z 30007MPS CAVOK 26/M01 Q1010 NOSIG
過去の天気等 Google飛行場航空写真 Wunderground天気予報

過去48時間のMETAR

飛行場予報(TAF)
発表時間: 5/28 05:10 CST (5/27 21:10 UTC)
予報対象時間: 28日8時 CST ~ 29日8時 CST
風向・風速北西 5m/s
視程8000m
少しの雲 雲底高度 1220m
28日12時 CST ~ 28日13時 CST に徐々に
風向・風速東南東 4m/s
28日20時 CST ~ 28日21時 CST に徐々に
風向・風速北西 5m/s
少しの積乱雲 雲底高度 1010m
全天の4割程度の雲 雲底高度 1220m
TAF ZWSH 272110Z 2800/2824 32005MPS 8000 FEW040 TX32/2809Z TN22/2800Z
BECMG 2804/2805 12004MPS
BECMG 2812/2813 32005MPS FEW033CB SCT040